createdAt,value
2018-07-15T00:02:09.904Z,15.68
2018-07-15T00:04:38.328Z,15.66
2018-07-15T00:07:06.867Z,15.68
2018-07-15T00:09:35.341Z,15.63
2018-07-15T00:12:03.848Z,15.61
2018-07-15T00:14:32.295Z,15.55
2018-07-15T00:17:00.717Z,15.53
2018-07-15T00:19:29.281Z,15.54
2018-07-15T00:21:57.721Z,15.52
2018-07-15T00:24:26.349Z,15.42
2018-07-15T00:26:54.818Z,15.34
2018-07-15T00:29:23.294Z,15.29
2018-07-15T00:31:52.336Z,15.24
2018-07-15T00:34:21.176Z,15.22
2018-07-15T00:36:49.616Z,15.23
2018-07-15T00:39:18.155Z,15.19
2018-07-15T00:41:46.584Z,15.12
2018-07-15T00:44:15.017Z,15.07
2018-07-15T00:46:43.478Z,14.98
2018-07-15T00:49:12.070Z,14.95
2018-07-15T00:51:40.487Z,14.93
2018-07-15T00:54:08.933Z,14.91
2018-07-15T00:56:37.578Z,14.84
2018-07-15T00:59:06.101Z,14.70
2018-07-15T01:01:34.591Z,14.60
2018-07-15T01:04:03.298Z,14.59
2018-07-15T01:06:31.876Z,14.61
2018-07-15T01:09:00.340Z,14.61
2018-07-15T01:11:28.820Z,14.49
2018-07-15T01:13:57.257Z,14.35
2018-07-15T01:16:25.729Z,14.20
2018-07-15T01:18:54.279Z,14.12
2018-07-15T01:21:22.753Z,14.07
2018-07-15T01:23:51.233Z,14.06
2018-07-15T01:26:19.722Z,14.11
2018-07-15T01:28:48.394Z,14.12
2018-07-15T01:31:16.982Z,14.10
2018-07-15T01:33:45.678Z,14.07
2018-07-15T01:36:14.221Z,14.09
2018-07-15T01:38:42.770Z,14.12
2018-07-15T01:41:11.332Z,14.17
2018-07-15T01:43:39.909Z,14.20
2018-07-15T01:46:08.339Z,14.20
2018-07-15T01:48:36.922Z,14.23
2018-07-15T01:51:05.451Z,14.08
2018-07-15T01:53:33.942Z,13.88
2018-07-15T01:56:02.358Z,13.68
2018-07-15T01:58:30.895Z,13.71
2018-07-15T02:00:59.357Z,13.79
2018-07-15T02:03:27.782Z,13.86
2018-07-15T02:05:56.349Z,13.91
2018-07-15T02:08:24.812Z,13.95
2018-07-15T02:10:53.252Z,13.97
2018-07-15T02:13:21.804Z,14.02
2018-07-15T02:15:50.586Z,14.03
2018-07-15T02:18:19.039Z,13.92
2018-07-15T02:20:47.467Z,13.70
2018-07-15T02:23:15.923Z,13.63
2018-07-15T02:25:44.409Z,13.68
2018-07-15T02:28:12.837Z,13.64
2018-07-15T02:30:41.340Z,13.68
2018-07-15T02:33:09.840Z,13.68
2018-07-15T02:35:38.337Z,13.65
2018-07-15T02:38:07.738Z,13.59
2018-07-15T02:40:36.247Z,13.60
2018-07-15T02:43:04.830Z,13.50
2018-07-15T02:45:33.273Z,13.35
2018-07-15T02:48:01.754Z,13.26
2018-07-15T02:50:30.180Z,13.24
2018-07-15T02:52:58.741Z,13.33
2018-07-15T02:55:27.254Z,13.40
2018-07-15T02:57:55.729Z,13.51
2018-07-15T03:00:24.324Z,13.57
2018-07-15T03:02:52.770Z,13.54
2018-07-15T03:05:21.235Z,13.36
2018-07-15T03:07:49.655Z,13.22
2018-07-15T03:10:18.240Z,13.14
2018-07-15T03:12:46.666Z,13.16
2018-07-15T03:15:15.085Z,13.20
2018-07-15T03:17:43.648Z,13.19
2018-07-15T03:20:12.137Z,13.19
2018-07-15T03:22:40.612Z,13.21
2018-07-15T03:25:09.422Z,13.24
2018-07-15T03:27:37.996Z,13.25
2018-07-15T03:30:06.814Z,13.16
2018-07-15T03:32:35.240Z,13.00
2018-07-15T03:35:03.668Z,12.92
2018-07-15T03:37:32.105Z,12.98
2018-07-15T03:40:00.709Z,13.00
2018-07-15T03:42:28.987Z,12.98
2018-07-15T03:44:57.395Z,13.03
2018-07-15T03:47:25.821Z,13.06
2018-07-15T03:49:54.249Z,13.03
2018-07-15T03:52:22.689Z,12.91
2018-07-15T03:54:51.279Z,12.79
2018-07-15T03:57:19.707Z,12.81
2018-07-15T03:59:48.249Z,12.91
2018-07-15T04:02:16.675Z,12.98
2018-07-15T04:04:45.225Z,12.99
2018-07-15T04:07:13.781Z,13.02
2018-07-15T04:09:42.218Z,12.98
2018-07-15T04:12:10.665Z,12.97
2018-07-15T04:14:39.219Z,12.97
2018-07-15T04:17:08.846Z,13.00
2018-07-15T04:19:37.947Z,13.07
2018-07-15T04:22:06.639Z,13.14
2018-07-15T04:24:35.054Z,13.22
2018-07-15T04:27:03.500Z,13.29
2018-07-15T04:29:31.954Z,13.31
2018-07-15T04:32:00.548Z,13.35
2018-07-15T04:34:29.001Z,13.42
2018-07-15T04:36:57.525Z,13.51
2018-07-15T04:39:26.005Z,13.69
2018-07-15T04:41:54.489Z,13.81
2018-07-15T04:44:23.010Z,13.92
2018-07-15T04:46:51.555Z,14.08
2018-07-15T04:49:20.022Z,14.20
2018-07-15T04:51:48.516Z,14.34
2018-07-15T04:54:16.967Z,14.49
2018-07-15T04:56:45.487Z,14.59
2018-07-15T04:59:13.921Z,14.69
2018-07-15T05:01:42.844Z,14.82
2018-07-15T05:04:12.756Z,14.92
2018-07-15T05:06:41.284Z,15.14
2018-07-15T05:09:09.824Z,15.37
2018-07-15T05:11:39.026Z,15.56
2018-07-15T05:14:08.123Z,15.74
2018-07-15T05:16:37.022Z,15.89
2018-07-15T05:19:05.811Z,16.04
2018-07-15T05:21:34.277Z,16.18
2018-07-15T05:24:02.793Z,16.32
2018-07-15T05:26:31.344Z,16.46
2018-07-15T05:28:59.834Z,16.57
2018-07-15T05:31:28.436Z,16.64
2018-07-15T05:33:56.912Z,16.72
2018-07-15T05:36:25.382Z,16.83
2018-07-15T05:38:53.847Z,16.98
2018-07-15T05:41:22.353Z,17.13
2018-07-15T05:43:50.922Z,17.24
2018-07-15T05:46:19.441Z,17.37
2018-07-15T05:48:47.869Z,17.46
2018-07-15T05:51:16.382Z,17.58
2018-07-15T05:53:44.876Z,17.66
2018-07-15T05:56:13.380Z,17.73
2018-07-15T05:58:42.158Z,17.81
2018-07-15T06:01:10.714Z,17.89
2018-07-15T06:03:39.208Z,17.97
2018-07-15T06:06:07.743Z,18.05
2018-07-15T06:08:36.315Z,18.13
2018-07-15T06:11:04.837Z,18.22
2018-07-15T06:13:33.344Z,18.30
2018-07-15T06:16:01.822Z,18.37
2018-07-15T06:18:30.420Z,18.44
2018-07-15T06:20:59.025Z,18.57
2018-07-15T06:23:27.595Z,18.66
2018-07-15T06:25:56.747Z,18.77
2018-07-15T06:28:25.165Z,18.84
2018-07-15T06:30:53.721Z,18.93
2018-07-15T06:33:27.767Z,18.99
2018-07-15T06:35:56.313Z,19.12
2018-07-15T06:38:24.932Z,19.24
2018-07-15T06:40:53.480Z,19.35
2018-07-15T06:43:21.968Z,19.44
2018-07-15T06:45:50.560Z,19.54
2018-07-15T06:48:19.149Z,19.61
2018-07-15T06:50:47.632Z,19.73
2018-07-15T06:53:16.445Z,19.80
2018-07-15T06:55:47.771Z,19.92
2018-07-15T06:58:18.713Z,19.98
2018-07-15T07:00:53.042Z,19.99
2018-07-15T07:03:21.488Z,20.09
2018-07-15T07:05:50.018Z,20.24
2018-07-15T07:08:18.461Z,20.35
2018-07-15T07:10:46.903Z,20.45
2018-07-15T07:13:15.465Z,20.52
2018-07-15T07:15:43.995Z,20.64
2018-07-15T07:18:12.452Z,20.70
2018-07-15T07:20:40.932Z,20.78
2018-07-15T07:23:09.342Z,20.91
2018-07-15T07:25:37.801Z,21.07
2018-07-15T07:28:06.321Z,21.14
2018-07-15T07:33:07.499Z,21.27
2018-07-15T07:35:35.965Z,21.33
2018-07-15T07:38:04.453Z,21.36
2018-07-15T07:40:32.917Z,21.52
2018-07-15T07:43:01.393Z,21.61
2018-07-15T07:45:29.879Z,21.78
2018-07-15T07:47:58.371Z,21.89
2018-07-15T07:50:26.943Z,21.98
2018-07-15T07:52:55.525Z,22.02
2018-07-15T07:55:23.953Z,22.02
2018-07-15T07:57:52.499Z,22.17
2018-07-15T08:00:20.979Z,22.18
2018-07-15T08:02:49.450Z,22.29
2018-07-15T08:05:17.966Z,22.37
2018-07-15T08:07:46.542Z,22.44
2018-07-15T08:10:15.234Z,22.43
2018-07-15T08:12:43.703Z,22.50
2018-07-15T08:15:12.407Z,22.56
2018-07-15T08:17:40.949Z,22.51
2018-07-15T08:20:09.496Z,22.48
2018-07-15T08:22:38.023Z,22.62
2018-07-15T08:25:06.603Z,22.70
2018-07-15T08:27:35.206Z,22.78
2018-07-15T08:30:15.105Z,22.84
2018-07-15T08:32:43.665Z,22.86
2018-07-15T08:35:12.113Z,22.82
2018-07-15T08:37:40.533Z,22.93
2018-07-15T08:40:09.080Z,23.03
2018-07-15T08:42:37.581Z,23.03
2018-07-15T08:45:06.236Z,23.09
2018-07-15T08:47:34.778Z,23.14
2018-07-15T08:50:03.356Z,23.19
2018-07-15T08:52:31.901Z,23.28
2018-07-15T08:55:00.378Z,23.35
2018-07-15T08:57:28.911Z,23.49
2018-07-15T08:59:57.430Z,23.56
2018-07-15T09:02:25.906Z,23.59
2018-07-15T09:04:54.394Z,23.67
2018-07-15T09:07:22.956Z,23.72
2018-07-15T09:09:51.601Z,23.75
2018-07-15T09:12:20.067Z,23.73
2018-07-15T09:14:48.629Z,23.73
2018-07-15T09:17:17.164Z,23.87
2018-07-15T09:19:45.730Z,23.96
2018-07-15T09:22:14.284Z,24.02
2018-07-15T09:24:42.800Z,24.06
2018-07-15T09:27:11.242Z,24.09
2018-07-15T09:29:39.727Z,24.19
2018-07-15T09:32:08.165Z,24.27
2018-07-15T09:34:36.653Z,24.36
2018-07-15T09:37:05.849Z,24.41
2018-07-15T09:39:36.734Z,24.47
2018-07-15T09:42:05.320Z,24.54
2018-07-15T09:44:33.796Z,24.67
2018-07-15T09:47:02.292Z,24.78
2018-07-15T09:49:30.799Z,24.88
2018-07-15T09:51:59.269Z,24.98
2018-07-15T09:54:27.723Z,25.10
2018-07-15T09:56:56.259Z,25.12
2018-07-15T09:59:24.712Z,25.18
2018-07-15T10:01:53.302Z,25.33
2018-07-15T10:04:21.995Z,25.46
2018-07-15T10:06:51.267Z,25.52
2018-07-15T10:09:19.745Z,25.52
2018-07-15T10:11:52.637Z,25.62
2018-07-15T10:14:21.204Z,25.69
2018-07-15T10:16:49.774Z,25.81
2018-07-15T10:19:18.428Z,25.87
2018-07-15T10:21:46.966Z,25.97
2018-07-15T10:24:15.553Z,26.10
2018-07-15T10:26:44.265Z,26.22
2018-07-15T10:29:12.730Z,26.40
2018-07-15T10:31:41.220Z,26.48
2018-07-15T10:34:09.796Z,26.61
2018-07-15T10:36:38.262Z,26.72
2018-07-15T10:39:07.322Z,26.87
2018-07-15T10:41:36.617Z,26.90
2018-07-15T10:44:05.201Z,26.87
2018-07-15T10:46:33.628Z,27.04
2018-07-15T10:49:02.115Z,27.22
2018-07-15T10:51:30.676Z,27.32
2018-07-15T10:54:00.078Z,27.40
2018-07-15T10:56:28.624Z,27.50
2018-07-15T10:58:57.133Z,27.41
2018-07-15T11:01:25.637Z,27.43
2018-07-15T11:03:54.103Z,27.62
2018-07-15T11:06:22.587Z,27.76
2018-07-15T11:08:51.120Z,27.76
2018-07-15T11:11:19.628Z,27.95
2018-07-15T11:13:48.518Z,28.10
2018-07-15T11:16:16.961Z,28.18
2018-07-15T11:18:45.783Z,28.21
2018-07-15T11:21:14.309Z,28.35
2018-07-15T11:23:42.805Z,28.48
2018-07-15T11:26:11.609Z,28.70
2018-07-15T11:28:40.174Z,28.95
2018-07-15T11:31:09.773Z,29.23
2018-07-15T11:33:38.142Z,29.62
2018-07-15T11:36:07.269Z,29.92
2018-07-15T11:38:35.716Z,30.18
2018-07-15T11:41:04.514Z,30.33
2018-07-15T11:43:33.175Z,30.47
2018-07-15T11:46:01.745Z,30.84
2018-07-15T11:48:30.259Z,31.14
2018-07-15T11:50:58.737Z,31.39
2018-07-15T11:53:27.197Z,31.61
2018-07-15T11:55:55.956Z,31.81
2018-07-15T11:58:33.717Z,31.82
2018-07-15T12:01:02.447Z,32.25
2018-07-15T12:03:30.913Z,32.58
2018-07-15T12:05:59.439Z,32.86
2018-07-15T12:08:27.900Z,33.03
2018-07-15T12:10:56.410Z,33.19
2018-07-15T12:13:24.912Z,32.95
2018-07-15T12:15:53.365Z,32.82
2018-07-15T12:18:21.837Z,32.63
2018-07-15T12:20:50.319Z,32.91
2018-07-15T12:23:18.821Z,33.25
2018-07-15T12:25:47.365Z,33.35
2018-07-15T12:28:15.867Z,33.48
2018-07-15T12:30:44.392Z,33.88
2018-07-15T12:33:12.826Z,34.02
2018-07-15T12:35:41.303Z,34.16
2018-07-15T12:38:09.772Z,34.22
2018-07-15T12:40:38.393Z,34.16
2018-07-15T12:43:06.937Z,34.07
2018-07-15T12:45:35.452Z,33.95
2018-07-15T12:48:04.164Z,34.06
2018-07-15T12:50:32.726Z,34.10
2018-07-15T12:53:01.192Z,34.21
2018-07-15T12:55:29.804Z,34.23
2018-07-15T12:57:58.269Z,34.35
2018-07-15T13:00:26.785Z,34.90
2018-07-15T13:02:55.331Z,35.43
2018-07-15T13:05:23.794Z,35.67
2018-07-15T13:07:52.292Z,35.77
2018-07-15T13:10:20.864Z,35.80
2018-07-15T13:12:49.448Z,35.85
2018-07-15T13:15:17.936Z,35.53
2018-07-15T13:17:46.375Z,35.03
2018-07-15T13:20:14.897Z,34.77
2018-07-15T13:22:43.476Z,34.63
2018-07-15T13:25:11.992Z,34.53
2018-07-15T13:27:40.587Z,34.59
2018-07-15T13:30:09.176Z,35.00
2018-07-15T13:32:37.670Z,35.23
2018-07-15T13:35:06.185Z,35.10
2018-07-15T13:37:34.677Z,35.29
2018-07-15T13:40:03.304Z,35.43
2018-07-15T13:42:31.825Z,35.03
2018-07-15T13:45:00.366Z,34.79
2018-07-15T13:47:28.900Z,34.65
2018-07-15T13:49:57.540Z,34.63
2018-07-15T13:52:26.077Z,35.00
2018-07-15T13:54:54.698Z,35.03
2018-07-15T13:57:23.229Z,35.17
2018-07-15T13:59:51.668Z,35.08
2018-07-15T14:02:20.218Z,34.95
2018-07-15T14:04:49.274Z,35.11
2018-07-15T14:07:18.508Z,35.13
2018-07-15T14:09:47.061Z,35.03
2018-07-15T14:12:15.548Z,34.54
2018-07-15T14:14:44.167Z,34.00
2018-07-15T14:17:12.635Z,33.78
2018-07-15T14:19:41.089Z,33.67
2018-07-15T14:22:09.569Z,33.99
2018-07-15T14:24:38.133Z,33.97
2018-07-15T14:27:06.633Z,33.95
2018-07-15T14:29:35.126Z,34.10
2018-07-15T14:32:03.618Z,34.17
2018-07-15T14:34:32.167Z,34.28
2018-07-15T14:37:00.657Z,34.30
2018-07-15T14:39:37.218Z,34.38
2018-07-15T14:42:06.313Z,34.18
2018-07-15T14:44:35.628Z,33.90
2018-07-15T14:47:04.198Z,33.83
2018-07-15T14:49:33.082Z,33.71
2018-07-15T14:52:01.574Z,33.74
2018-07-15T14:54:30.149Z,33.75
2018-07-15T14:56:58.649Z,33.51
2018-07-15T14:59:27.229Z,33.59
2018-07-15T15:01:55.915Z,33.64
2018-07-15T15:04:24.477Z,33.61
2018-07-15T15:06:53.142Z,33.33
2018-07-15T15:09:21.771Z,33.15
2018-07-15T15:11:50.333Z,33.18
2018-07-15T15:14:18.822Z,33.21
2018-07-15T15:16:47.326Z,33.05
2018-07-15T15:19:15.809Z,33.00
2018-07-15T15:21:44.219Z,32.87
2018-07-15T15:24:12.693Z,32.86
2018-07-15T15:26:41.208Z,32.67
2018-07-15T15:29:09.816Z,32.56
2018-07-15T15:31:38.674Z,32.50
2018-07-15T15:34:07.264Z,32.57
2018-07-15T15:36:35.732Z,32.62
2018-07-15T15:39:04.971Z,32.42
2018-07-15T15:41:33.584Z,32.31
2018-07-15T15:44:02.069Z,32.36
2018-07-15T15:46:30.485Z,32.39
2018-07-15T15:48:58.983Z,32.57
2018-07-15T15:51:27.572Z,32.57
2018-07-15T15:53:56.078Z,32.38
2018-07-15T15:56:24.518Z,32.59
2018-07-15T15:58:53.096Z,32.45
2018-07-15T16:01:21.535Z,32.35
2018-07-15T16:03:50.173Z,32.34
2018-07-15T16:06:18.916Z,32.19
2018-07-15T16:08:47.417Z,32.24
2018-07-15T16:11:15.936Z,32.42
2018-07-15T16:13:44.408Z,32.59
2018-07-15T16:16:12.914Z,32.73
2018-07-15T16:18:41.432Z,32.85
2018-07-15T16:21:09.966Z,32.78
2018-07-15T16:23:38.561Z,32.55
2018-07-15T16:26:07.121Z,32.55
2018-07-15T16:28:35.692Z,32.47
2018-07-15T16:31:04.158Z,32.26
2018-07-15T16:33:32.638Z,32.12
2018-07-15T16:36:01.230Z,32.12
2018-07-15T16:38:29.683Z,32.17
2018-07-15T16:40:58.181Z,32.20
2018-07-15T16:43:26.659Z,32.30
2018-07-15T16:45:55.198Z,32.36
2018-07-15T16:48:23.696Z,32.39
2018-07-15T16:50:52.144Z,32.45
2018-07-15T16:53:20.680Z,32.34
2018-07-15T16:55:49.299Z,32.13
2018-07-15T16:58:17.868Z,32.13
2018-07-15T17:00:46.347Z,32.00
2018-07-15T17:03:15.026Z,31.98
2018-07-15T17:05:43.502Z,31.89
2018-07-15T17:08:12.088Z,31.73
2018-07-15T17:10:40.685Z,31.47
2018-07-15T17:13:09.163Z,31.47
2018-07-15T17:15:37.733Z,31.47
2018-07-15T17:18:06.191Z,31.48
2018-07-15T17:20:34.648Z,31.40
2018-07-15T17:23:03.224Z,31.42
2018-07-15T17:25:31.734Z,31.35
2018-07-15T17:28:00.268Z,31.24
2018-07-15T17:30:28.812Z,31.08
2018-07-15T17:32:57.639Z,31.03
2018-07-15T17:35:28.307Z,30.97
2018-07-15T17:37:56.761Z,30.91
2018-07-15T17:40:25.340Z,30.87
2018-07-15T17:42:53.789Z,30.85
2018-07-15T17:45:22.237Z,30.73
2018-07-15T17:47:50.739Z,30.56
2018-07-15T17:50:19.222Z,30.48
2018-07-15T17:52:53.148Z,30.39
2018-07-15T17:55:21.576Z,30.31
2018-07-15T17:57:50.095Z,30.15
2018-07-15T18:00:18.580Z,29.86
2018-07-15T18:02:47.028Z,29.67
2018-07-15T18:05:15.472Z,29.55
2018-07-15T18:11:06.517Z,28.95
2018-07-15T18:13:34.973Z,28.79
2018-07-15T18:16:03.477Z,28.53
2018-07-15T18:18:32.014Z,28.37
2018-07-15T18:21:00.460Z,28.17
2018-07-15T18:23:28.970Z,28.01
2018-07-15T18:25:57.507Z,27.89
2018-07-15T18:28:25.965Z,27.71
2018-07-15T18:30:54.441Z,27.53
2018-07-15T18:33:23.441Z,27.39
2018-07-15T18:35:51.946Z,27.25
2018-07-15T18:38:20.766Z,27.10
2018-07-15T18:40:50.376Z,26.98
2018-07-15T18:43:19.268Z,26.88
2018-07-15T18:45:47.859Z,26.81
2018-07-15T18:48:16.312Z,26.70
2018-07-15T18:50:44.826Z,26.58
2018-07-15T18:53:13.305Z,26.44
2018-07-15T18:55:41.829Z,26.19
2018-07-15T18:58:10.294Z,26.06
2018-07-15T19:00:38.906Z,25.94
2018-07-15T19:03:24.514Z,25.78
2018-07-15T19:05:52.981Z,25.57
2018-07-15T19:08:21.434Z,25.39
2018-07-15T19:10:49.981Z,25.15
2018-07-15T19:13:18.596Z,24.94
2018-07-15T19:15:47.089Z,24.71
2018-07-15T19:18:16.811Z,24.49
2018-07-15T19:20:45.352Z,24.25
2018-07-15T19:23:13.873Z,24.10
2018-07-15T19:25:42.356Z,23.97
2018-07-15T19:28:11.086Z,23.79
2018-07-15T19:30:39.826Z,23.61
2018-07-15T19:33:08.365Z,23.45
2018-07-15T19:35:36.971Z,23.33
2018-07-15T19:38:05.546Z,23.20
2018-07-15T19:40:34.140Z,23.11
2018-07-15T19:43:02.724Z,23.01
2018-07-15T19:45:31.176Z,22.96
2018-07-15T19:47:59.590Z,22.86
2018-07-15T19:50:28.346Z,22.77
2018-07-15T19:52:56.829Z,22.64
2018-07-15T19:55:25.333Z,22.46
2018-07-15T19:57:53.905Z,22.30
2018-07-15T20:00:22.393Z,22.15
2018-07-15T20:02:50.962Z,22.00
2018-07-15T20:05:19.558Z,21.85
2018-07-15T20:07:53.421Z,21.73
2018-07-15T20:10:22.070Z,21.64
2018-07-15T20:12:50.721Z,21.51
2018-07-15T20:15:19.200Z,21.39
2018-07-15T20:17:47.696Z,21.27
2018-07-15T20:20:16.178Z,21.16
2018-07-15T20:22:44.762Z,21.05
2018-07-15T20:25:18.660Z,20.94
2018-07-15T20:27:47.215Z,20.88
2018-07-15T20:30:15.676Z,20.77
2018-07-15T20:32:44.245Z,20.66
2018-07-15T20:35:12.833Z,20.60
2018-07-15T20:37:41.389Z,20.48
2018-07-15T20:40:10.469Z,20.38
2018-07-15T20:42:39.455Z,20.29
2018-07-15T20:45:08.001Z,20.18
2018-07-15T20:47:36.470Z,20.13
2018-07-15T20:50:04.977Z,20.08
2018-07-15T20:52:34.279Z,20.00
2018-07-15T20:55:02.717Z,19.92
2018-07-15T20:57:31.391Z,19.78
2018-07-15T20:59:59.897Z,19.65
2018-07-15T21:02:29.099Z,19.57
2018-07-15T21:04:57.704Z,19.49
2018-07-15T21:07:26.240Z,19.49
2018-07-15T21:09:58.134Z,19.46
2018-07-15T21:12:26.720Z,19.43
2018-07-15T21:14:55.328Z,19.33
2018-07-15T21:17:23.844Z,19.23
2018-07-15T21:19:52.365Z,19.17
2018-07-15T21:22:20.853Z,19.11
2018-07-15T21:24:49.297Z,19.04
2018-07-15T21:27:17.741Z,18.97
2018-07-15T21:29:46.258Z,18.92
2018-07-15T21:32:14.741Z,18.86
2018-07-15T21:34:44.244Z,18.82
2018-07-15T21:37:12.938Z,18.75
2018-07-15T21:39:41.652Z,18.64
2018-07-15T21:42:10.186Z,18.56
2018-07-15T21:44:38.633Z,18.48
2018-07-15T21:47:07.197Z,18.42
2018-07-15T21:49:43.243Z,18.36
2018-07-15T21:52:11.689Z,18.34
2018-07-15T21:54:40.210Z,18.31
2018-07-15T21:57:08.643Z,18.27
2018-07-15T21:59:37.162Z,18.21
2018-07-15T22:02:05.996Z,18.14
2018-07-15T22:04:34.522Z,18.11
2018-07-15T22:07:14.224Z,18.05
2018-07-15T22:09:55.753Z,18.01
2018-07-15T22:12:25.471Z,17.97
2018-07-15T22:14:53.972Z,17.90
2018-07-15T22:17:22.567Z,17.78
2018-07-15T22:19:51.228Z,17.64
2018-07-15T22:22:19.824Z,17.59
2018-07-15T22:24:48.296Z,17.60
2018-07-15T22:27:16.894Z,17.58
2018-07-15T22:29:45.457Z,17.57
2018-07-15T22:32:14.095Z,17.50
2018-07-15T22:34:42.631Z,17.48
2018-07-15T22:37:20.654Z,17.44
2018-07-15T22:39:49.318Z,17.39
2018-07-15T22:42:17.795Z,17.35
2018-07-15T22:44:46.233Z,17.25
2018-07-15T22:47:14.693Z,17.17
2018-07-15T22:49:47.147Z,17.12
2018-07-15T22:52:15.735Z,17.09
2018-07-15T22:54:44.205Z,17.07
2018-07-15T22:57:12.769Z,17.07
2018-07-15T22:59:41.287Z,17.04
2018-07-15T23:02:09.906Z,17.06
2018-07-15T23:05:53.311Z,17.08
2018-07-15T23:08:22.395Z,17.02
2018-07-15T23:10:50.887Z,17.00
2018-07-15T23:13:19.761Z,16.95
2018-07-15T23:15:48.748Z,16.94
2018-07-15T23:18:17.256Z,16.91
2018-07-15T23:20:46.542Z,16.85
2018-07-15T23:23:15.530Z,16.80
2018-07-15T23:25:44.012Z,16.76
2018-07-15T23:28:13.717Z,16.73
2018-07-15T23:30:42.709Z,16.62
2018-07-15T23:33:11.497Z,16.55
2018-07-15T23:35:39.943Z,16.54
2018-07-15T23:38:08.494Z,16.50
2018-07-15T23:40:37.037Z,16.46
2018-07-15T23:43:05.744Z,16.46
2018-07-15T23:45:35.033Z,16.43
2018-07-15T23:48:03.507Z,16.37
2018-07-15T23:50:31.999Z,16.35
2018-07-15T23:53:00.469Z,16.29
2018-07-15T23:55:29.072Z,16.24
2018-07-15T23:57:57.750Z,16.22
